Time;durP1;ratioP1;P1;durP2;ratioP2;P2;SDS_P1;SDS_P2;PMS_P1;PMS_P2;Temp;Humidity;BMP_temperature;BMP_pressure;BME280_temperature;BME280_humidity;BME280_pressure;Samples;Min_cycle;Max_cycle;Signal;HPM_P1;HPM_P2
2021/05/30 00:00:08;;;;;;;5.50;3.78;;;410.30;1920.00;;;;;;5053356;28;20079;-57
2021/05/30 00:02:34;;;;;;;7.07;4.07;;;410.40;1920.00;;;;;;5053662;28;20543;-58
2021/05/30 00:04:59;;;;;;;6.20;3.67;;;410.30;1945.60;;;;;;5053472;28;20028;-57
2021/05/30 00:07:25;;;;;;;9.25;4.63;;;410.30;1945.60;;;;;;5053202;28;20029;-57
2021/05/30 00:09:54;;;;;;;6.55;3.50;;;410.30;1945.60;;;;;;5053316;28;20033;-57
2021/05/30 00:12:21;;;;;;;5.40;3.80;;;410.30;1945.60;;;;;;5053619;28;20051;-56
2021/05/30 00:14:47;;;;;;;7.78;3.80;;;410.30;1971.20;;;;;;5053157;28;20029;-57
2021/05/30 00:17:14;;;;;;;5.82;3.40;;;410.20;1971.20;;;;;;5053500;28;20029;-57
2021/05/30 00:19:41;;;;;;;4.70;3.33;;;410.20;1971.20;;;;;;5053244;28;20028;-57
2021/05/30 00:22:07;;;;;;;7.38;4.32;;;410.20;1996.80;;;;;;5053063;28;20025;-57
2021/05/30 00:24:33;;;;;;;6.13;4.18;;;410.20;1996.80;;;;;;5053047;28;20068;-58
2021/05/30 00:26:59;;;;;;;5.25;3.38;;;410.00;1996.80;;;;;;5053086;28;20025;-60
2021/05/30 00:29:25;;;;;;;5.78;3.45;;;410.10;1996.80;;;;;;5052740;28;20043;-56
2021/05/30 00:31:50;;;;;;;8.15;3.80;;;410.00;2022.40;;;;;;5052782;28;20090;-57
2021/05/30 00:34:17;;;;;;;4.68;3.30;;;409.90;2048.00;;;;;;5052682;28;20064;-57
2021/05/30 00:36:43;;;;;;;4.35;3.30;;;409.90;2022.40;;;;;;5052941;28;20044;-57
2021/05/30 00:39:08;;;;;;;5.53;3.60;;;409.90;2048.00;;;;;;5052745;28;20060;-57
2021/05/30 00:41:34;;;;;;;5.38;4.10;;;409.90;2048.00;;;;;;5052307;28;20505;-57
2021/05/30 00:44:00;;;;;;;5.10;3.53;;;409.90;2073.60;;;;;;5052253;28;20130;-57
2021/05/30 00:46:26;;;;;;;4.85;4.18;;;409.80;2073.60;;;;;;5052507;28;20021;-58
2021/05/30 00:48:52;;;;;;;7.25;4.00;;;409.70;2099.20;;;;;;5052669;28;20382;-57
2021/05/30 00:51:18;;;;;;;5.63;3.90;;;409.60;2099.20;;;;;;5051232;28;20103;-57
2021/05/30 00:53:44;;;;;;;5.07;3.47;;;384.90;2099.20;;;;;;5052520;28;20499;-57
2021/05/30 00:56:13;;;;;;;6.55;4.45;;;384.90;2124.80;;;;;;5052643;28;20037;-57
2021/05/30 00:58:40;;;;;;;5.28;3.45;;;384.90;2124.80;;;;;;5052494;28;20105;-57
2021/05/30 01:01:06;;;;;;;6.00;3.30;;;384.80;2150.40;;;;;;5052380;28;20106;-57
2021/05/30 01:03:37;;;;;;;5.40;4.00;;;384.70;2176.00;;;;;;5051889;28;20544;-57
2021/05/30 01:06:04;;;;;;;5.45;3.75;;;384.70;2176.00;;;;;;5052411;28;20025;-57
2021/05/30 01:08:30;;;;;;;11.20;4.28;;;384.50;2201.60;;;;;;5052436;28;20021;-57
2021/05/30 01:11:00;;;;;;;4.50;3.50;;;384.50;2201.60;;;;;;5051935;28;20037;-57
2021/05/30 01:13:27;;;;;;;4.75;3.40;;;384.40;2227.20;;;;;;5052238;28;20371;-57
2021/05/30 01:15:54;;;;;;;4.90;3.55;;;384.40;2227.20;;;;;;5052092;28;20478;-55
2021/05/30 01:18:21;;;;;;;5.78;4.20;;;384.30;2278.40;;;;;;5052069;28;20529;-56
2021/05/30 01:20:48;;;;;;;5.15;3.67;;;384.30;2278.40;;;;;;5051917;28;20025;-57
2021/05/30 01:23:16;;;;;;;5.03;4.13;;;384.30;2304.00;;;;;;5051813;28;20025;-57
2021/05/30 01:25:42;;;;;;;6.15;4.30;;;384.30;2304.00;;;;;;5051999;28;20033;-57
2021/05/30 01:28:08;;;;;;;7.75;4.32;;;384.30;2278.40;;;;;;5065386;28;20021;-57
2021/05/30 01:30:35;;;;;;;4.82;3.55;;;384.10;2329.60;;;;;;5071485;28;20389;-57
2021/05/30 01:33:03;;;;;;;5.15;3.70;;;384.10;2329.60;;;;;;5071901;28;20029;-56
2021/05/30 01:35:29;;;;;;;4.75;3.63;;;384.20;2329.60;;;;;;5071459;28;20029;-57
2021/05/30 01:37:55;;;;;;;5.88;4.30;;;384.10;2329.60;;;;;;5071443;28;20470;-57
2021/05/30 01:40:22;;;;;;;4.75;3.95;;;384.10;2329.60;;;;;;5071622;28;20032;-58
2021/05/30 01:42:49;;;;;;;5.20;4.05;;;384.00;2329.60;;;;;;5071400;28;20044;-58
2021/05/30 01:45:17;;;;;;;5.80;4.70;;;384.00;2329.60;;;;;;5071423;28;20021;-57
2021/05/30 01:47:45;;;;;;;7.82;4.75;;;359.30;2329.60;;;;;;5071663;28;20029;-57
2021/05/30 01:50:20;;;;;;;6.53;4.45;;;359.20;2329.60;;;;;;5071226;28;20036;-56
2021/05/30 01:52:48;;;;;;;7.25;4.20;;;359.20;2329.60;;;;;;5071193;28;20226;-57
2021/05/30 01:55:27;;;;;;;6.72;4.50;;;359.30;2329.60;;;;;;5071307;28;20020;-57
2021/05/30 01:57:55;;;;;;;6.43;4.63;;;359.20;2329.60;;;;;;5071421;28;20020;-57
2021/05/30 02:00:21;;;;;;;7.05;5.07;;;359.20;2329.60;;;;;;5071185;28;20016;-57
2021/05/30 02:02:55;;;;;;;5.82;5.03;;;359.00;2329.60;;;;;;5070657;28;20063;-57
2021/05/30 02:05:22;;;;;;;6.82;5.40;;;359.00;2329.60;;;;;;5071039;28;20020;-57
2021/05/30 02:07:49;;;;;;;5.88;4.60;;;358.90;2329.60;;;;;;5071028;28;20039;-57
2021/05/30 02:10:17;;;;;;;6.63;4.90;;;358.90;2329.60;;;;;;5070695;28;20060;-57
2021/05/30 02:12:47;;;;;;;6.10;5.18;;;358.80;2329.60;;;;;;5071116;28;20032;-56
2021/05/30 02:15:14;;;;;;;8.35;5.60;;;358.90;2329.60;;;;;;5070990;28;20025;-57
2021/05/30 02:17:40;;;;;;;6.30;5.00;;;359.00;2329.60;;;;;;5070296;28;20048;-57
2021/05/30 02:20:08;;;;;;;8.38;5.57;;;359.00;2329.60;;;;;;5070728;28;20031;-57
2021/05/30 02:22:34;;;;;;;8.95;5.60;;;359.00;2329.60;;;;;;5070747;28;20489;-57
2021/05/30 02:24:59;;;;;;;7.22;5.50;;;358.90;2329.60;;;;;;5070781;28;20021;-57
2021/05/30 02:27:25;;;;;;;7.78;6.00;;;359.00;2329.60;;;;;;5070656;28;20031;-56
2021/05/30 02:29:51;;;;;;;15.75;6.05;;;359.00;2329.60;;;;;;5070667;28;20028;-57
2021/05/30 02:32:17;;;;;;;7.57;5.32;;;358.90;2329.60;;;;;;5070474;28;20508;-57
2021/05/30 02:34:43;;;;;;;7.13;6.07;;;358.90;2329.60;;;;;;5070600;28;20454;-57
2021/05/30 02:37:11;;;;;;;6.97;5.45;;;358.60;2329.60;;;;;;5070512;28;20104;-60
2021/05/30 02:39:37;;;;;;;7.18;5.95;;;358.90;2329.60;;;;;;5070585;28;20024;-57
2021/05/30 02:42:04;;;;;;;7.15;5.57;;;358.80;2329.60;;;;;;5070480;28;20044;-57
2021/05/30 02:44:30;;;;;;;6.40;5.40;;;358.80;2329.60;;;;;;5070394;28;20090;-57
2021/05/30 02:46:55;;;;;;;9.23;5.95;;;358.80;2329.60;;;;;;5070266;28;20474;-57
2021/05/30 02:49:21;;;;;;;6.35;5.25;;;358.80;2329.60;;;;;;5070326;28;20029;-57
2021/05/30 02:51:47;;;;;;;7.57;5.65;;;358.80;2329.60;;;;;;5070176;28;20040;-57
2021/05/30 02:54:13;;;;;;;7.88;5.97;;;358.80;2329.60;;;;;;5070307;28;20109;-57
2021/05/30 02:56:40;;;;;;;6.18;5.00;;;358.80;2329.60;;;;;;5070290;28;20086;-57
2021/05/30 02:59:06;;;;;;;6.57;4.95;;;358.90;2329.60;;;;;;5070151;28;20366;-57
2021/05/30 03:01:31;;;;;;;7.97;5.40;;;358.80;2329.60;;;;;;5069957;28;20036;-57
2021/05/30 03:03:57;;;;;;;6.63;5.38;;;358.80;2329.60;;;;;;5070004;28;20486;-57
2021/05/30 03:06:26;;;;;;;6.90;5.60;;;358.80;2329.60;;;;;;5070235;28;20427;-58
2021/05/30 03:08:52;;;;;;;7.13;5.13;;;358.90;2329.60;;;;;;5070210;28;20020;-58
2021/05/30 03:11:19;;;;;;;7.20;5.45;;;359.10;2329.60;;;;;;5070026;28;20032;-59
2021/05/30 03:13:45;;;;;;;5.47;4.57;;;358.90;2329.60;;;;;;5069069;28;20020;-59
2021/05/30 03:16:11;;;;;;;7.03;4.85;;;358.90;2329.60;;;;;;5070097;28;20035;-58
2021/05/30 03:18:36;;;;;;;7.50;5.63;;;358.90;2329.60;;;;;;5069867;28;20021;-59
2021/05/30 03:21:02;;;;;;;7.20;4.50;;;359.00;2329.60;;;;;;5069981;28;20082;-58
2021/05/30 03:23:29;;;;;;;6.07;4.75;;;358.90;2329.60;;;;;;5069762;28;20037;-58
2021/05/30 03:25:55;;;;;;;9.82;5.90;;;359.00;2329.60;;;;;;5070116;28;20039;-58
2021/05/30 03:28:21;;;;;;;9.15;5.55;;;358.90;2329.60;;;;;;5070063;28;20382;-58
2021/05/30 03:30:46;;;;;;;7.15;5.68;;;359.00;2329.60;;;;;;5069805;28;20040;-58
2021/05/30 03:33:12;;;;;;;10.98;6.10;;;359.00;2329.60;;;;;;5070074;28;20527;-58
2021/05/30 03:35:38;;;;;;;7.03;5.45;;;359.00;2329.60;;;;;;5069595;28;20032;-57
2021/05/30 03:38:07;;;;;;;7.88;5.80;;;358.90;2329.60;;;;;;5069596;28;20017;-58
2021/05/30 03:40:50;;;;;;;7.68;5.80;;;359.00;2329.60;;;;;;5069931;28;20033;-58
2021/05/30 03:43:16;;;;;;;9.88;6.93;;;359.00;2329.60;;;;;;5069761;28;20047;-58
2021/05/30 03:45:43;;;;;;;9.20;5.95;;;359.00;2329.60;;;;;;5069809;28;20029;-58
2021/05/30 03:48:09;;;;;;;12.60;6.50;;;359.00;2329.60;;;;;;5069629;28;20024;-58
2021/05/30 03:50:35;;;;;;;8.68;5.68;;;358.90;2329.60;;;;;;5069374;28;20040;-58
2021/05/30 03:53:01;;;;;;;9.45;5.45;;;359.00;2329.60;;;;;;5069758;28;20029;-58
2021/05/30 03:55:27;;;;;;;7.38;5.75;;;359.00;2329.60;;;;;;5069435;28;20025;-57
2021/05/30 03:57:54;;;;;;;8.32;5.95;;;359.10;2329.60;;;;;;5069792;28;20029;-58
2021/05/30 04:00:21;;;;;;;7.20;6.05;;;359.20;2329.60;;;;;;5069543;28;20032;-57
2021/05/30 04:02:48;;;;;;;9.93;6.50;;;359.20;2329.60;;;;;;5069614;28;20021;-58
2021/05/30 04:05:15;;;;;;;9.07;6.10;;;359.20;2329.60;;;;;;5069290;28;20075;-58
2021/05/30 04:07:41;;;;;;;8.85;6.47;;;359.10;2329.60;;;;;;5069739;28;20470;-58
2021/05/30 04:10:10;;;;;;;7.90;6.13;;;359.20;2329.60;;;;;;5069409;28;20588;-58
2021/05/30 04:12:37;;;;;;;7.47;5.55;;;359.10;2329.60;;;;;;5069523;28;20017;-58
2021/05/30 04:15:05;;;;;;;8.20;6.45;;;359.20;2304.00;;;;;;5069610;28;20029;-58
2021/05/30 04:17:30;;;;;;;7.65;5.88;;;359.10;2329.60;;;;;;5069607;28;20052;-58
2021/05/30 04:19:56;;;;;;;8.02;5.72;;;359.20;2304.00;;;;;;5069211;28;20067;-58
2021/05/30 04:22:22;;;;;;;7.60;5.80;;;359.20;2278.40;;;;;;5069625;28;20024;-58
2021/05/30 04:24:48;;;;;;;7.00;5.32;;;359.10;2278.40;;;;;;5070257;28;20035;-58
2021/05/30 04:27:13;;;;;;;8.30;5.22;;;359.10;2304.00;;;;;;5073139;28;20070;-58
2021/05/30 04:29:39;;;;;;;8.27;5.65;;;359.10;2278.40;;;;;;5073092;28;20115;-58
2021/05/30 04:32:05;;;;;;;7.28;5.75;;;359.10;2278.40;;;;;;5072636;28;20040;-58
2021/05/30 04:34:31;;;;;;;6.38;4.85;;;359.00;2304.00;;;;;;5072737;28;20390;-57
2021/05/30 04:36:57;;;;;;;9.25;5.28;;;358.90;2304.00;;;;;;5072691;28;20025;-58
2021/05/30 04:39:23;;;;;;;6.10;5.00;;;359.00;2304.00;;;;;;5073062;28;20031;-57
2021/05/30 04:41:49;;;;;;;5.97;4.90;;;358.90;2329.60;;;;;;5072594;28;20456;-58
2021/05/30 04:44:14;;;;;;;10.30;5.50;;;358.90;2304.00;;;;;;5072650;28;20107;-58
2021/05/30 04:46:40;;;;;;;6.75;4.47;;;359.00;2329.60;;;;;;5062785;28;20025;-57
2021/05/30 04:49:07;;;;;;;7.53;5.07;;;359.00;2329.60;;;;;;5061528;28;20048;-58
2021/05/30 04:51:33;;;;;;;7.40;4.70;;;359.10;2278.40;;;;;;5061373;28;20501;-58
2021/05/30 04:53:59;;;;;;;7.55;4.85;;;359.00;2329.60;;;;;;5059895;28;20017;-55
2021/05/30 04:56:26;;;;;;;5.95;4.40;;;359.00;2304.00;;;;;;5061605;28;20040;-57
2021/05/30 04:58:52;;;;;;;8.18;5.45;;;359.00;2329.60;;;;;;5061397;28;20017;-57
2021/05/30 05:01:18;;;;;;;6.88;5.03;;;359.00;2329.60;;;;;;5059841;28;20040;-56
2021/05/30 05:03:44;;;;;;;7.53;5.15;;;359.10;2329.60;;;;;;5062577;28;20064;-57
2021/05/30 05:06:10;;;;;;;6.22;4.35;;;359.00;2329.60;;;;;;5059719;28;20060;-57
2021/05/30 05:08:36;;;;;;;6.45;4.88;;;359.00;2329.60;;;;;;5061668;28;20025;-56
2021/05/30 05:11:02;;;;;;;11.80;5.50;;;359.10;2329.60;;;;;;5061048;28;20483;-56
2021/05/30 05:13:28;;;;;;;7.47;4.70;;;359.20;2329.60;;;;;;5068493;28;20513;-58
2021/05/30 05:15:55;;;;;;;7.10;4.90;;;359.10;2329.60;;;;;;5071492;28;20021;-57
2021/05/30 05:18:23;;;;;;;6.93;4.93;;;359.30;2329.60;;;;;;5061606;28;20025;-57
2021/05/30 05:20:50;;;;;;;5.25;4.40;;;359.30;2329.60;;;;;;5054803;28;20025;-58
2021/05/30 05:23:18;;;;;;;5.88;4.45;;;359.20;2329.60;;;;;;5051122;28;20123;-58
2021/05/30 05:25:48;;;;;;;6.65;5.40;;;384.00;2329.60;;;;;;5051169;28;20025;-56
2021/05/30 05:28:13;;;;;;;6.57;4.78;;;359.30;2329.60;;;;;;5051092;28;20029;-56
2021/05/30 05:30:39;;;;;;;6.80;5.45;;;359.20;2329.60;;;;;;5056015;28;20081;-57
2021/05/30 05:33:05;;;;;;;6.20;4.45;;;359.30;2329.60;;;;;;5054198;28;20048;-57
2021/05/30 05:35:31;;;;;;;7.75;5.10;;;359.20;2329.60;;;;;;5071572;28;20035;-57
2021/05/30 05:37:57;;;;;;;5.10;4.43;;;359.30;2329.60;;;;;;5070843;28;20027;-57
2021/05/30 05:40:25;;;;;;;9.18;5.93;;;384.00;2329.60;;;;;;5062374;28;20025;-56
2021/05/30 05:42:52;;;;;;;7.03;5.07;;;384.10;2329.60;;;;;;5055128;28;20044;-57
2021/05/30 05:45:19;;;;;;;5.82;5.00;;;384.10;2329.60;;;;;;5051545;28;20055;-57
2021/05/30 05:47:45;;;;;;;6.57;5.45;;;384.20;2329.60;;;;;;5051206;28;20450;-57
2021/05/30 05:50:12;;;;;;;6.05;4.55;;;384.30;2329.60;;;;;;5069763;28;20091;-57
2021/05/30 05:52:39;;;;;;;6.75;4.88;;;384.40;2329.60;;;;;;5071043;28;20024;-57
2021/05/30 05:55:07;;;;;;;7.55;4.20;;;384.40;2329.60;;;;;;5071094;28;20388;-57
2021/05/30 05:57:37;;;;;;;6.65;4.65;;;384.20;2329.60;;;;;;5070443;28;20028;-56
2021/05/30 06:00:11;;;;;;;6.00;4.20;;;384.20;2329.60;;;;;;5071124;28;20111;-57
2021/05/30 06:02:37;;;;;;;8.00;4.75;;;384.20;2329.60;;;;;;5060836;28;20479;-57
2021/05/30 06:05:04;;;;;;;7.82;5.05;;;384.30;2329.60;;;;;;5054118;28;20391;-57
2021/05/30 06:07:30;;;;;;;6.32;4.70;;;384.30;2329.60;;;;;;5051155;28;20455;-57
2021/05/30 06:09:56;;;;;;;7.93;5.22;;;384.40;2329.60;;;;;;5050810;28;20364;-58
2021/05/30 06:12:22;;;;;;;8.02;4.82;;;384.50;2329.60;;;;;;5051165;28;20104;-57
2021/05/30 06:14:47;;;;;;;5.30;4.53;;;384.40;2329.60;;;;;;5051062;28;20033;-56
2021/05/30 06:17:13;;;;;;;5.95;4.70;;;384.50;2329.60;;;;;;5051205;28;20491;-57
2021/05/30 06:19:39;;;;;;;6.20;4.57;;;384.50;2329.60;;;;;;5050948;28;20040;-57
2021/05/30 06:22:06;;;;;;;6.50;5.07;;;384.60;2329.60;;;;;;5050387;28;20052;-57
2021/05/30 06:24:33;;;;;;;6.85;5.13;;;384.80;2329.60;;;;;;5051041;28;20127;-57
2021/05/30 06:26:59;;;;;;;6.50;4.85;;;384.90;2329.60;;;;;;5050659;28;20459;-56
2021/05/30 06:29:25;;;;;;;9.95;5.65;;;409.60;2355.20;;;;;;5050477;28;20029;-58
2021/05/30 06:31:51;;;;;;;9.95;5.30;;;409.70;2329.60;;;;;;5050615;28;20554;-58
2021/05/30 06:34:17;;;;;;;6.65;5.22;;;409.80;2355.20;;;;;;5050593;28;20155;-57
2021/05/30 06:36:47;;;;;;;5.90;4.50;;;409.70;2355.20;;;;;;5050429;28;20036;-59
2021/05/30 06:39:13;;;;;;;7.10;5.05;;;409.80;2329.60;;;;;;5050643;28;20033;-58
2021/05/30 06:41:39;;;;;;;6.35;4.90;;;410.00;2329.60;;;;;;5050191;28;20455;-57
2021/05/30 06:44:06;;;;;;;7.10;4.57;;;410.20;2304.00;;;;;;5050295;28;20025;-57
2021/05/30 06:46:32;;;;;;;6.22;5.10;;;410.30;2252.80;;;;;;5050532;28;20071;-57
2021/05/30 06:48:58;;;;;;;6.57;5.30;;;410.20;2252.80;;;;;;5050176;28;20399;-57
2021/05/30 06:51:29;;;;;;;6.70;4.88;;;410.30;2252.80;;;;;;5049814;28;20052;-57
2021/05/30 06:53:55;;;;;;;7.13;5.60;;;410.40;2227.20;;;;;;5048141;28;20024;-58
2021/05/30 06:56:21;;;;;;;7.05;5.15;;;435.20;2227.20;;;;;;5048622;28;20040;-57
2021/05/30 06:58:46;;;;;;;5.57;4.40;;;435.60;2227.20;;;;;;5048515;28;20514;-60
2021/05/30 07:01:12;;;;;;;6.05;4.72;;;435.90;2150.40;;;;;;5048573;28;20115;-60
2021/05/30 07:03:38;;;;;;;5.97;4.20;;;436.10;2099.20;;;;;;5051266;28;20036;-59
2021/05/30 07:06:05;;;;;;;6.20;3.92;;;436.10;2073.60;;;;;;5064632;28;20556;-61
2021/05/30 07:08:31;;;;;;;8.65;4.78;;;460.90;2099.20;;;;;;5068436;28;20112;-62
2021/05/30 07:10:57;;;;;;;5.65;4.50;;;460.80;2124.80;;;;;;5068435;28;20120;-59
2021/05/30 07:13:23;;;;;;;7.78;4.47;;;460.90;2099.20;;;;;;5058051;28;20420;-59
2021/05/30 07:15:51;;;;;;;6.40;4.60;;;460.80;2099.20;;;;;;5057950;28;20028;-60
2021/05/30 07:18:18;;;;;;;8.57;4.28;;;461.00;2099.20;;;;;;5056802;28;20028;-61
2021/05/30 07:20:45;;;;;;;6.20;4.05;;;461.20;2099.20;;;;;;5062373;28;20047;-60
2021/05/30 07:23:11;;;;;;;9.85;4.53;;;461.50;2048.00;;;;;;5068255;28;20111;-64
2021/05/30 07:25:37;;;;;;;6.47;4.28;;;486.60;1971.20;;;;;;5067899;28;20032;-60
2021/05/30 07:28:04;;;;;;;5.10;4.45;;;486.80;1945.60;;;;;;5068339;28;20025;-61
2021/05/30 07:30:30;;;;;;;6.25;4.47;;;486.80;1971.20;;;;;;5062118;28;20041;-60
2021/05/30 07:32:55;;;;;;;7.15;4.90;;;486.70;1945.60;;;;;;5048227;28;20044;-59
2021/05/30 07:35:21;;;;;;;5.90;4.03;;;486.60;1920.00;;;;;;5048159;28;20372;-59
2021/05/30 07:37:47;;;;;;;7.25;4.35;;;486.70;1894.40;;;;;;5047452;28;20071;-62
2021/05/30 07:40:13;;;;;;;5.63;4.30;;;486.60;1894.40;;;;;;5053655;28;20107;-64
2021/05/30 07:42:39;;;;;;;7.72;4.65;;;487.10;1843.20;;;;;;5048050;28;20072;-61
2021/05/30 07:45:06;;;;;;;6.40;4.82;;;487.10;1868.80;;;;;;5048133;28;20052;-62
2021/05/30 07:47:32;;;;;;;6.70;5.10;;;487.10;1843.20;;;;;;5048087;28;20036;-60
2021/05/30 07:49:57;;;;;;;5.50;4.22;;;486.70;1894.40;;;;;;5047772;28;20033;-60
2021/05/30 07:52:24;;;;;;;5.35;4.40;;;486.70;1920.00;;;;;;5061342;28;20032;-59
2021/05/30 07:54:49;;;;;;;5.88;4.50;;;486.60;1894.40;;;;;;5058542;28;20126;-61
2021/05/30 07:57:15;;;;;;;5.43;4.10;;;486.40;1894.40;;;;;;5060465;28;20474;-59
2021/05/30 07:59:41;;;;;;;5.38;4.65;;;461.60;1920.00;;;;;;5068583;28;20021;-67
2021/05/30 08:02:07;;;;;;;5.47;4.13;;;461.40;1945.60;;;;;;5071192;28;20410;-61
2021/05/30 08:04:33;;;;;;;7.35;4.80;;;461.40;1945.60;;;;;;5071288;28;20033;-62
2021/05/30 08:07:00;;;;;;;5.28;4.38;;;461.50;1920.00;;;;;;5071282;28;20032;-63
2021/05/30 08:09:25;;;;;;;7.90;5.22;;;461.70;1945.60;;;;;;5071432;28;20074;-60
2021/05/30 08:11:53;;;;;;;5.97;4.85;;;486.50;1894.40;;;;;;5071600;28;20024;-58
2021/05/30 08:14:20;;;;;;;8.55;5.50;;;486.60;1894.40;;;;;;5071731;28;20035;-60
2021/05/30 08:16:46;;;;;;;8.82;4.75;;;486.50;1920.00;;;;;;5070814;28;20089;-60
2021/05/30 08:19:13;;;;;;;6.28;4.47;;;486.70;1894.40;;;;;;5071216;28;20020;-60
2021/05/30 08:21:43;;;;;;;7.47;5.65;;;486.50;1894.40;;;;;;5071425;28;20028;-60
2021/05/30 08:24:09;;;;;;;7.25;5.45;;;486.50;1868.80;;;;;;5071435;28;20024;-61
2021/05/30 08:26:35;;;;;;;10.18;6.45;;;486.60;1843.20;;;;;;5071279;28;20024;-61
2021/05/30 08:29:01;;;;;;;6.40;4.93;;;486.80;1843.20;;;;;;5071316;28;20494;-59
2021/05/30 08:31:27;;;;;;;5.68;4.00;;;487.00;1817.60;;;;;;5070009;28;20040;-60
2021/05/30 08:33:53;;;;;;;10.77;7.90;;;487.10;1843.20;;;;;;5068345;28;20031;-64
2021/05/30 08:36:18;;;;;;;7.68;5.95;;;487.00;1766.40;;;;;;5063258;28;20083;-64
2021/05/30 08:38:44;;;;;;;7.93;5.40;;;487.10;1792.00;;;;;;5062284;28;20024;-62
2021/05/30 08:41:11;;;;;;;7.13;4.85;;;487.10;1766.40;;;;;;5059299;28;20580;-61
2021/05/30 08:43:37;;;;;;;5.85;4.65;;;512.00;1792.00;;;;;;5057219;28;20037;-60
2021/05/30 08:46:03;;;;;;;6.50;4.97;;;512.20;1766.40;;;;;;5059375;28;20039;-60
2021/05/30 08:48:29;;;;;;;6.03;4.95;;;512.00;1766.40;;;;;;5060513;28;20028;-62
2021/05/30 08:51:05;;;;;;;10.60;5.40;;;512.20;1766.40;;;;;;5059936;28;20402;-60
2021/05/30 08:53:32;;;;;;;7.45;5.18;;;512.30;1715.20;;;;;;5060136;28;20086;-59
2021/05/30 08:55:58;;;;;;;8.60;4.78;;;512.60;1740.80;;;;;;5053361;28;20094;-61
2021/05/30 08:58:40;;;;;;;8.07;4.18;;;512.50;1664.00;;;;;;5058505;28;20486;-60
2021/05/30 09:01:14;;;;;;;7.97;4.28;;;512.50;1689.60;;;;;;5058656;28;20029;-59
2021/05/30 09:04:07;;;;;;;6.05;4.38;;;512.50;1664.00;;;;;;5060258;28;20056;-60
2021/05/30 09:06:34;;;;;;;4.95;3.95;;;537.80;1664.00;;;;;;5060359;28;20025;-61
2021/05/30 09:09:00;;;;;;;5.22;3.75;;;538.20;1612.80;;;;;;5062170;28;20024;-64
2021/05/30 09:11:48;;;;;;;4.97;3.30;;;538.40;1587.20;;;;;;5059197;28;20037;-59
2021/05/30 09:14:16;;;;;;;5.53;3.97;;;538.50;1561.60;;;;;;5058558;28;20025;-60
2021/05/30 09:16:54;;;;;;;4.82;3.92;;;538.30;1561.60;;;;;;5058727;28;20099;-60
2021/05/30 09:19:39;;;;;;;4.80;4.18;;;538.10;1638.40;;;;;;5059578;28;20033;-60
2021/05/30 09:22:31;;;;;;;5.18;3.65;;;538.40;1612.80;;;;;;5059319;28;20536;-61
2021/05/30 09:25:06;;;;;;;4.35;3.22;;;563.30;1459.20;;;;;;5057956;28;20017;-60
2021/05/30 09:27:43;;;;;;;4.18;3.25;;;563.20;1459.20;;;;;;5059829;28;20111;-60
2021/05/30 09:30:30;;;;;;;4.38;3.35;;;538.50;1459.20;;;;;;5059717;28;20043;-59
2021/05/30 09:33:00;;;;;;;7.10;4.18;;;537.90;1459.20;;;;;;5058589;28;20074;-62
2021/05/30 09:35:37;;;;;;;5.95;3.67;;;512.50;1536.00;;;;;;5061099;28;20039;-59
2021/05/30 09:38:06;;;;;;;8.95;4.50;;;512.10;1612.80;;;;;;5058023;28;21365;-60
2021/05/30 09:40:47;;;;;;;5.43;4.28;;;487.10;1638.40;;;;;;5061081;28;20025;-61
2021/05/30 09:43:17;;;;;;;7.05;4.88;;;487.10;1664.00;;;;;;5060496;28;20063;-65
2021/05/30 09:46:13;;;;;;;6.00;5.32;;;487.10;1664.00;;;;;;5060259;28;20040;-61
2021/05/30 09:48:56;;;;;;;52.13;40.53;;;512.20;1638.40;;;;;;5041838;28;20040;-64
2021/05/30 09:51:34;;;;;;;6.65;5.55;;;512.50;1638.40;;;;;;5058251;28;20534;-61
2021/05/30 09:54:04;;;;;;;7.85;6.85;;;512.60;1612.80;;;;;;5060847;28;20121;-61
2021/05/30 09:56:34;;;;;;;8.25;6.63;;;512.50;1587.20;;;;;;5060989;28;20028;-63
2021/05/30 09:59:02;;;;;;;13.68;9.75;;;512.30;1612.80;;;;;;5060167;28;20367;-60
2021/05/30 10:01:45;;;;;;;8.45;6.53;;;512.80;1587.20;;;;;;5056286;28;20032;-62
2021/05/30 10:04:12;;;;;;;24.85;22.65;;;537.60;1612.80;;;;;;5059208;28;20032;-64
2021/05/30 10:06:38;;;;;;;9.88;8.80;;;512.80;1587.20;;;;;;5058404;28;20028;-66
2021/05/30 10:09:04;;;;;;;10.38;9.38;;;512.80;1561.60;;;;;;5060592;28;20519;-62
2021/05/30 10:11:30;;;;;;;22.30;16.88;;;512.90;1536.00;;;;;;5057120;28;20040;-67
2021/05/30 10:13:55;;;;;;;60.53;39.83;;;537.90;1587.20;;;;;;5056601;28;20151;-61
2021/05/30 10:16:22;;;;;;;378.67;263.88;;;537.90;1561.60;;;;;;5056768;28;20542;-61
2021/05/30 10:18:51;;;;;;;19.88;14.98;;;538.10;1510.40;;;;;;5057029;28;20047;-59
2021/05/30 10:21:18;;;;;;;188.23;125.30;;;538.20;1561.60;;;;;;5053104;28;20075;-61
2021/05/30 10:23:50;;;;;;;8.82;7.07;;;538.00;1536.00;;;;;;5057373;28;20661;-61
2021/05/30 10:26:17;;;;;;;11.35;7.50;;;538.00;1587.20;;;;;;5050044;28;20107;-60
2021/05/30 10:28:58;;;;;;;32.78;23.95;;;512.80;1561.60;;;;;;5056850;28;20032;-60
2021/05/30 10:31:35;;;;;;;114.93;56.30;;;512.00;1587.20;;;;;;5051648;28;20522;-61
2021/05/30 10:34:24;;;;;;;88.80;45.75;;;487.30;1587.20;;;;;;5053644;28;20043;-60
2021/05/30 10:36:59;;;;;;;7.68;6.00;;;487.00;1638.40;;;;;;5060007;28;20028;-65
2021/05/30 10:39:33;;;;;;;9.60;6.70;;;487.00;1664.00;;;;;;5058521;28;20036;-61
2021/05/30 10:42:19;;;;;;;8.18;6.18;;;487.00;1689.60;;;;;;5054263;28;20053;-60
2021/05/30 10:45:03;;;;;;;7.15;4.20;;;487.00;1689.60;;;;;;5070045;28;20493;-62
2021/05/30 10:47:44;;;;;;;11.18;7.28;;;487.10;1664.00;;;;;;5070026;28;20479;-63
2021/05/30 10:50:12;;;;;;;6.20;3.67;;;487.30;1587.20;;;;;;5070322;28;20572;-59
2021/05/30 10:52:41;;;;;;;5.57;2.63;;;512.20;1459.20;;;;;;5069981;28;20028;-60
2021/05/30 10:55:25;;;;;;;5.65;4.03;;;512.30;1433.60;;;;;;5069885;28;20024;-61
2021/05/30 10:57:51;;;;;;;4.13;2.92;;;512.50;1459.20;;;;;;5070535;28;20024;-61
2021/05/30 11:00:20;;;;;;;4.25;2.90;;;512.50;1459.20;;;;;;5069286;28;20489;-63
2021/05/30 11:03:07;;;;;;;5.53;3.05;;;512.10;1484.80;;;;;;5057067;28;20490;-62
2021/05/30 11:05:41;;;;;;;6.63;4.78;;;512.00;1536.00;;;;;;5058298;28;20029;-59
2021/05/30 11:08:07;;;;;;;6.97;4.55;;;512.00;1510.40;;;;;;5057593;28;20021;-60
2021/05/30 11:10:34;;;;;;;5.50;4.18;;;487.20;1561.60;;;;;;5059440;28;20074;-60
2021/05/30 11:13:02;;;;;;;5.88;4.25;;;487.10;1561.60;;;;;;5059236;28;20043;-61
2021/05/30 11:15:29;;;;;;;5.53;3.78;;;487.30;1561.60;;;;;;5057275;28;20475;-60
2021/05/30 11:17:57;;;;;;;6.05;4.47;;;512.20;1510.40;;;;;;5058852;28;20475;-61
2021/05/30 11:20:27;;;;;;;5.65;4.65;;;512.80;1510.40;;;;;;5058815;28;20087;-61
2021/05/30 11:23:02;;;;;;;7.45;4.53;;;537.80;1536.00;;;;;;5057095;28;20043;-60
2021/05/30 11:25:37;;;;;;;7.20;6.32;;;538.40;1536.00;;;;;;5056565;28;20028;-61
2021/05/30 11:28:07;;;;;;;5.78;4.70;;;538.50;1433.60;;;;;;5056341;28;20013;-61
2021/05/30 11:30:38;;;;;;;5.82;5.10;;;563.20;1510.40;;;;;;5064411;28;20119;-62
2021/05/30 11:33:04;;;;;;;4.55;4.10;;;563.30;1484.80;;;;;;5064071;28;20112;-61
2021/05/30 11:35:30;;;;;;;7.10;4.60;;;563.40;1510.40;;;;;;5057111;28;20043;-61
2021/05/30 11:37:57;;;;;;;7.95;4.57;;;563.60;1510.40;;;;;;5057301;28;20025;-60
2021/05/30 11:40:23;;;;;;;4.15;3.15;;;563.70;1459.20;;;;;;5060514;28;20024;-64
2021/05/30 11:42:50;;;;;;;5.45;3.95;;;563.80;1433.60;;;;;;5061500;28;20047;-64
2021/05/30 11:45:35;;;;;;;5.50;4.03;;;563.60;1382.40;;;;;;5058580;28;20025;-63
2021/05/30 11:48:19;;;;;;;3.63;2.95;;;563.50;1433.60;;;;;;5062986;28;20121;-64
2021/05/30 11:50:53;;;;;;;9.65;6.68;;;563.20;1408.00;;;;;;5062185;28;20040;-66
2021/05/30 11:53:30;;;;;;;7.43;5.22;;;538.40;1408.00;;;;;;5055677;28;20040;-61
2021/05/30 11:55:58;;;;;;;6.28;3.47;;;538.00;1433.60;;;;;;5066120;28;20155;-61
2021/05/30 11:58:24;;;;;;;5.35;3.33;;;512.80;1459.20;;;;;;5061197;28;20538;-59
2021/05/30 12:01:01;;;;;;;5.63;3.47;;;512.50;1510.40;;;;;;5060385;28;20118;-61
2021/05/30 12:03:27;;;;;;;3.70;3.08;;;512.40;1536.00;;;;;;5060149;28;20033;-59
2021/05/30 12:06:03;;;;;;;4.47;2.85;;;512.30;1536.00;;;;;;5062030;28;20025;-62
2021/05/30 12:08:30;;;;;;;5.43;2.78;;;512.20;1484.80;;;;;;5059590;28;20029;-61
2021/05/30 12:11:01;;;;;;;5.15;3.30;;;512.20;1484.80;;;;;;5061688;28;20040;-61
2021/05/30 12:13:29;;;;;;;6.82;4.40;;;512.20;1459.20;;;;;;5059536;28;20033;-61
2021/05/30 12:15:57;;;;;;;14.40;11.77;;;512.60;1459.20;;;;;;5059947;28;20077;-66
2021/05/30 12:18:23;;;;;;;16.13;11.82;;;512.90;1433.60;;;;;;5059196;28;20017;-63
2021/05/30 12:20:49;;;;;;;11.80;6.55;;;537.90;1484.80;;;;;;5060478;28;20036;-61